createdAt,value
2023-03-07T00:00:25.704Z,647.41
2023-03-07T00:01:21.082Z,626.13
2023-03-07T00:02:16.709Z,633.27
2023-03-07T00:03:11.865Z,620.89
2023-03-07T00:04:07.259Z,623.79
2023-03-07T00:05:03.152Z,617.44
2023-03-07T00:05:58.636Z,612.34
2023-03-07T00:06:54.340Z,606.76
2023-03-07T00:07:49.379Z,593.80
2023-03-07T00:08:44.679Z,593.80
2023-03-07T00:09:40.506Z,612.90
2023-03-07T00:10:35.837Z,626.13
2023-03-07T00:11:31.234Z,619.73
2023-03-07T00:12:27.519Z,615.16
2023-03-07T00:13:22.697Z,619.73
2023-03-07T00:14:18.592Z,625.55
2023-03-07T00:15:13.719Z,612.34
2023-03-07T00:16:09.359Z,612.90
2023-03-07T00:17:04.887Z,623.21
2023-03-07T00:18:00.205Z,611.21
2023-03-07T00:18:56.121Z,608.42
2023-03-07T00:19:51.282Z,596.45
2023-03-07T00:20:46.739Z,595.39
2023-03-07T00:21:42.233Z,600.75
2023-03-07T00:22:37.400Z,617.44
2023-03-07T00:23:32.571Z,618.01
2023-03-07T00:24:28.965Z,636.29
2023-03-07T00:25:24.176Z,617.44
2023-03-07T00:26:20.101Z,616.87
2023-03-07T00:27:15.113Z,612.90
2023-03-07T00:28:10.287Z,599.67
2023-03-07T00:29:06.314Z,599.67
2023-03-07T00:30:01.355Z,579.85
2023-03-07T00:30:57.236Z,587.52
2023-03-07T00:31:52.417Z,537.77
2023-03-07T00:32:47.818Z,115.09
2023-03-07T00:33:43.528Z,105.48
2023-03-07T00:34:38.741Z,95.87
2023-03-07T00:35:33.860Z,92.57
2023-03-07T00:36:29.148Z,106.36
2023-03-07T00:37:24.264Z,137.69
2023-03-07T00:38:19.985Z,168.22
2023-03-07T00:39:15.170Z,197.70
2023-03-07T00:40:11.075Z,237.31
2023-03-07T00:41:06.385Z,276.51
2023-03-07T00:42:01.606Z,305.89
2023-03-07T00:42:57.314Z,329.22
2023-03-07T00:43:52.522Z,354.85
2023-03-07T00:44:47.694Z,366.75
2023-03-07T00:45:44.191Z,388.37
2023-03-07T00:46:39.225Z,406.11
2023-03-07T00:47:35.118Z,413.92
2023-03-07T00:48:30.278Z,430.21
2023-03-07T00:49:25.531Z,444.26
2023-03-07T00:50:21.456Z,451.78
2023-03-07T00:51:16.497Z,457.67
2023-03-07T00:52:11.631Z,465.67
2023-03-07T00:53:06.824Z,461.80
2023-03-07T00:54:01.943Z,465.02
2023-03-07T00:54:57.002Z,468.61
2023-03-07T00:55:52.345Z,463.72
2023-03-07T00:56:47.281Z,485.32
2023-03-07T00:57:42.327Z,483.56
2023-03-07T00:58:37.387Z,491.04
2023-03-07T00:59:32.434Z,494.32
2023-03-07T01:00:27.527Z,504.41
2023-03-07T01:01:22.541Z,517.33
2023-03-07T01:02:17.624Z,541.26
2023-03-07T01:03:12.623Z,547.93
2023-03-07T01:05:39.279Z,610.09
2023-03-07T01:06:31.602Z,561.31
2023-03-07T01:07:26.744Z,553.85
2023-03-07T01:08:21.935Z,553.39
2023-03-07T01:09:17.081Z,561.78
2023-03-07T01:10:12.414Z,559.89
2023-03-07T01:11:07.437Z,561.31
2023-03-07T01:12:02.712Z,573.37
2023-03-07T01:12:57.849Z,589.08
2023-03-07T01:13:53.111Z,582.90
2023-03-07T01:14:48.222Z,590.64
2023-03-07T01:15:43.801Z,590.12
2023-03-07T01:16:38.749Z,601.29
2023-03-07T01:17:34.004Z,598.06
2023-03-07T01:18:29.006Z,602.38
2023-03-07T01:19:24.283Z,589.08
2023-03-07T01:20:19.517Z,599.13
2023-03-07T01:21:14.554Z,618.58
2023-03-07T01:22:09.667Z,624.96
2023-03-07T01:23:04.957Z,634.47
2023-03-07T01:24:00.129Z,648.04
2023-03-07T01:24:55.660Z,654.40
2023-03-07T01:25:50.632Z,660.23
2023-03-07T01:26:45.808Z,666.17
2023-03-07T01:27:40.939Z,656.98
2023-03-07T01:28:36.114Z,663.52
2023-03-07T01:29:31.251Z,670.86
2023-03-07T01:30:26.681Z,684.63
2023-03-07T01:31:21.599Z,679.06
2023-03-07T01:32:16.783Z,662.20
2023-03-07T01:33:11.981Z,657.63
2023-03-07T01:34:07.168Z,644.91
2023-03-07T01:35:02.467Z,628.49
2023-03-07T01:35:57.853Z,619.73
2023-03-07T01:36:52.826Z,602.92
2023-03-07T01:37:47.980Z,591.69
2023-03-07T01:38:43.132Z,581.37
2023-03-07T01:39:38.426Z,580.86
2023-03-07T01:40:33.452Z,583.92
2023-03-07T01:41:28.586Z,579.35
2023-03-07T01:42:24.001Z,579.35
2023-03-07T01:43:18.966Z,582.39
2023-03-07T01:44:14.123Z,585.97
2023-03-07T01:45:09.411Z,590.12
2023-03-07T01:46:04.652Z,589.60
2023-03-07T01:46:59.729Z,592.74
2023-03-07T01:47:55.007Z,595.39
2023-03-07T01:48:50.024Z,594.86
2023-03-07T01:49:45.485Z,591.69
2023-03-07T01:50:40.494Z,589.08
2023-03-07T01:51:35.666Z,583.92
2023-03-07T01:52:30.810Z,578.85
2023-03-07T01:53:25.968Z,572.88
2023-03-07T01:54:21.097Z,571.90
2023-03-07T01:55:16.552Z,565.59
2023-03-07T01:56:11.676Z,564.16
2023-03-07T01:57:06.866Z,563.68
2023-03-07T01:58:02.015Z,562.73
2023-03-07T01:58:57.269Z,561.31
2023-03-07T01:59:52.572Z,562.25
2023-03-07T02:00:47.404Z,560.84
2023-03-07T02:01:42.567Z,561.31
2023-03-07T02:02:37.716Z,560.36
2023-03-07T02:03:32.961Z,559.42
2023-03-07T02:04:28.158Z,557.55
2023-03-07T02:05:23.176Z,554.77
2023-03-07T02:06:18.450Z,551.10
2023-03-07T02:07:13.446Z,554.31
2023-03-07T02:08:08.838Z,559.89
2023-03-07T02:09:03.825Z,556.62
2023-03-07T02:09:59.261Z,558.96
2023-03-07T02:10:54.259Z,558.49
2023-03-07T02:11:49.407Z,555.23
2023-03-07T02:12:44.540Z,552.93
2023-03-07T02:13:39.814Z,556.16
2023-03-07T02:14:34.953Z,552.47
2023-03-07T02:15:30.242Z,549.74
2023-03-07T02:16:25.461Z,547.03
2023-03-07T02:17:20.523Z,547.93
2023-03-07T02:18:15.624Z,547.48
2023-03-07T02:19:10.782Z,551.56
2023-03-07T02:20:06.201Z,552.93
2023-03-07T02:21:01.080Z,550.19
2023-03-07T02:21:56.213Z,548.38
2023-03-07T02:22:51.603Z,548.38
2023-03-07T02:23:46.581Z,545.24
2023-03-07T02:24:41.748Z,549.29
2023-03-07T02:25:37.079Z,547.48
2023-03-07T02:26:32.223Z,547.93
2023-03-07T02:27:27.239Z,548.38
2023-03-07T02:28:22.378Z,551.56
2023-03-07T02:29:17.528Z,550.19
2023-03-07T02:30:12.972Z,557.55
2023-03-07T02:31:08.028Z,558.49
2023-03-07T02:32:03.304Z,544.80
2023-03-07T02:32:58.586Z,546.14
2023-03-07T02:33:53.717Z,543.91
2023-03-07T02:34:48.861Z,543.02
2023-03-07T02:35:44.348Z,543.91
2023-03-07T02:36:39.453Z,538.64
2023-03-07T02:37:34.638Z,536.90
2023-03-07T02:38:29.847Z,537.34
2023-03-07T02:39:24.887Z,533.04
2023-03-07T02:40:20.193Z,529.65
2023-03-07T02:41:15.191Z,529.65
2023-03-07T02:42:10.345Z,528.39
2023-03-07T02:43:05.639Z,530.92
2023-03-07T02:44:00.909Z,528.39
2023-03-07T02:44:56.140Z,523.42
2023-03-07T02:45:51.134Z,523.42
2023-03-07T02:46:46.527Z,525.89
2023-03-07T02:47:41.527Z,521.78
2023-03-07T02:48:36.835Z,516.92
2023-03-07T02:49:31.998Z,520.56
2023-03-07T02:50:27.309Z,509.42
2023-03-07T02:51:22.282Z,503.27
2023-03-07T02:52:17.479Z,504.79
2023-03-07T02:53:12.599Z,506.71
2023-03-07T02:54:07.872Z,510.59
2023-03-07T02:55:03.214Z,506.33
2023-03-07T02:55:58.216Z,507.10
2023-03-07T02:56:53.443Z,510.59
2023-03-07T02:57:48.725Z,509.81
2023-03-07T02:58:43.714Z,518.53
2023-03-07T02:59:39.058Z,519.74
2023-03-07T03:00:34.035Z,518.94
2023-03-07T03:01:29.360Z,517.73
2023-03-07T03:02:24.535Z,518.13
2023-03-07T03:03:19.690Z,520.96
2023-03-07T03:04:14.912Z,522.19
2023-03-07T03:05:10.142Z,522.60
2023-03-07T03:06:05.126Z,517.73
2023-03-07T03:07:00.555Z,520.15
2023-03-07T03:07:55.609Z,519.34
2023-03-07T03:08:50.874Z,522.60
2023-03-07T03:09:46.058Z,520.96
2023-03-07T03:10:41.244Z,522.60
2023-03-07T03:11:36.359Z,522.60
2023-03-07T03:12:31.546Z,522.60
2023-03-07T03:13:26.678Z,520.96
2023-03-07T03:14:21.966Z,524.24
2023-03-07T03:15:17.133Z,518.53
2023-03-07T03:16:12.280Z,516.92
2023-03-07T03:17:07.556Z,514.14
2023-03-07T03:18:02.752Z,513.34
2023-03-07T03:18:57.847Z,511.38
2023-03-07T03:19:53.171Z,511.38
2023-03-07T03:20:48.165Z,507.87
2023-03-07T03:21:43.444Z,507.48
2023-03-07T03:22:38.635Z,505.94
2023-03-07T03:23:33.746Z,502.89
2023-03-07T03:24:28.867Z,493.95
2023-03-07T03:25:24.342Z,492.13
2023-03-07T03:26:19.214Z,483.91
2023-03-07T03:27:14.499Z,483.91
2023-03-07T03:28:09.512Z,480.43
2023-03-07T03:29:04.916Z,479.74
2023-03-07T03:30:00.127Z,477.33
2023-03-07T03:30:55.119Z,473.27
2023-03-07T03:31:50.247Z,474.95
2023-03-07T03:32:45.434Z,471.59
2023-03-07T03:33:40.566Z,468.61
2023-03-07T03:34:35.861Z,468.28
2023-03-07T03:35:31.039Z,463.08
2023-03-07T03:36:26.197Z,462.12
2023-03-07T03:37:21.451Z,454.56
2023-03-07T03:38:16.660Z,453.63
2023-03-07T03:39:11.789Z,449.95
2023-03-07T03:40:07.119Z,445.15
2023-03-07T03:41:02.111Z,442.20
2023-03-07T03:41:57.398Z,440.15
2023-03-07T03:42:52.657Z,442.78
2023-03-07T03:43:47.794Z,445.74
2023-03-07T03:44:43.076Z,423.12
2023-03-07T03:45:38.146Z,418.60
2023-03-07T03:46:33.306Z,417.03
2023-03-07T03:47:28.615Z,424.19
2023-03-07T03:48:23.640Z,422.05
2023-03-07T03:49:19.102Z,416.77
2023-03-07T03:50:14.130Z,413.67
2023-03-07T03:51:09.398Z,397.64
2023-03-07T03:52:04.539Z,385.68
2023-03-07T03:52:59.710Z,383.02
2023-03-07T03:53:54.849Z,388.82
2023-03-07T03:54:49.999Z,398.11
2023-03-07T03:55:45.161Z,403.41
2023-03-07T03:56:40.320Z,344.06
2023-03-07T03:57:35.584Z,311.11
2023-03-07T03:58:30.779Z,324.02
2023-03-07T03:59:26.112Z,324.98
2023-03-07T04:00:21.306Z,321.79
2023-03-07T04:01:16.297Z,330.21
2023-03-07T04:02:11.664Z,340.14
2023-03-07T04:03:06.828Z,347.34
2023-03-07T04:04:01.998Z,359.91
2023-03-07T04:04:57.120Z,379.53
2023-03-07T04:05:52.300Z,384.34
2023-03-07T04:06:47.463Z,396.22
2023-03-07T04:07:42.855Z,407.60
2023-03-07T04:08:37.882Z,415.73
2023-03-07T04:09:33.185Z,417.55
2023-03-07T04:10:28.335Z,412.64
2023-03-07T04:11:23.643Z,406.61
2023-03-07T04:12:18.773Z,414.18
2023-03-07T04:13:13.958Z,418.34
2023-03-07T04:14:09.118Z,230.64
2023-03-07T04:15:04.270Z,186.68
2023-03-07T04:15:59.432Z,168.05
2023-03-07T04:16:54.573Z,185.52
2023-03-07T04:17:49.949Z,211.87
2023-03-07T04:18:45.281Z,228.71
2023-03-07T04:19:40.149Z,249.39
2023-03-07T04:20:35.342Z,273.97
2023-03-07T04:21:30.462Z,283.19
2023-03-07T04:22:25.749Z,309.35
2023-03-07T04:23:20.899Z,329.55
2023-03-07T04:24:16.205Z,345.15
2023-03-07T04:25:11.333Z,357.56
2023-03-07T04:26:06.593Z,365.93
2023-03-07T04:27:01.734Z,370.06
2023-03-07T04:27:57.163Z,382.14
2023-03-07T04:28:52.360Z,391.56
2023-03-07T04:29:47.354Z,399.30
2023-03-07T04:30:42.510Z,411.37
2023-03-07T04:31:37.857Z,419.13
2023-03-07T04:32:33.036Z,425.55
2023-03-07T04:33:28.188Z,428.56
2023-03-07T04:34:23.489Z,433.57
2023-03-07T04:35:18.517Z,433.29
2023-03-07T04:36:13.649Z,422.58
2023-03-07T04:37:08.917Z,320.85
2023-03-07T04:38:04.208Z,312.89
2023-03-07T04:38:59.413Z,316.21
2023-03-07T04:39:54.384Z,335.27
2023-03-07T04:40:49.667Z,352.19
2023-03-07T04:41:44.753Z,367.16
2023-03-07T04:42:40.042Z,375.14
2023-03-07T04:43:35.211Z,393.64
2023-03-07T04:44:30.650Z,408.35
2023-03-07T04:45:25.612Z,409.60
2023-03-07T04:46:20.865Z,403.65
2023-03-07T04:47:15.993Z,403.90
2023-03-07T04:48:11.406Z,412.64
2023-03-07T04:49:06.592Z,424.19
2023-03-07T04:50:01.601Z,429.38
2023-03-07T04:50:56.773Z,431.89
2023-03-07T04:51:52.079Z,427.73
2023-03-07T04:52:47.223Z,416.51
2023-03-07T04:53:42.421Z,423.39
2023-03-07T04:54:37.568Z,430.21
2023-03-07T04:55:32.866Z,428.56
2023-03-07T04:56:28.044Z,443.37
2023-03-07T04:57:23.232Z,449.35
2023-03-07T04:58:18.500Z,455.80
2023-03-07T04:59:13.698Z,459.25
2023-03-07T05:00:08.827Z,466.97
2023-03-07T05:01:04.108Z,471.93
2023-03-07T05:01:59.250Z,471.26
2023-03-07T05:02:54.395Z,477.67
2023-03-07T05:03:49.736Z,483.91
2023-03-07T05:04:44.752Z,484.27
2023-03-07T05:05:39.910Z,483.21
2023-03-07T05:06:35.098Z,489.60
2023-03-07T05:07:30.236Z,488.88
2023-03-07T05:08:25.530Z,490.32
2023-03-07T05:09:20.578Z,483.21
2023-03-07T05:10:15.736Z,473.94
2023-03-07T05:11:10.884Z,475.97
2023-03-07T05:12:06.151Z,479.05
2023-03-07T05:13:01.399Z,487.45
2023-03-07T05:13:56.482Z,490.68
2023-03-07T05:14:51.600Z,477.67
2023-03-07T05:15:46.788Z,467.62
2023-03-07T05:16:41.928Z,470.26
2023-03-07T05:17:37.225Z,457.67
2023-03-07T05:18:32.677Z,429.94
2023-03-07T05:19:27.608Z,425.82
2023-03-07T05:20:22.743Z,415.73
2023-03-07T05:21:18.015Z,416.25
2023-03-07T05:22:13.026Z,423.12
2023-03-07T05:23:08.299Z,426.91
2023-03-07T05:24:03.697Z,422.85
2023-03-07T05:24:58.687Z,416.25
2023-03-07T05:25:53.899Z,424.46
2023-03-07T05:26:49.097Z,425.55
2023-03-07T05:27:44.083Z,422.58
2023-03-07T05:28:39.614Z,419.39
2023-03-07T05:29:34.627Z,419.39
2023-03-07T05:30:29.856Z,414.95
2023-03-07T05:31:25.192Z,394.34
2023-03-07T05:32:20.248Z,395.51
2023-03-07T05:33:15.532Z,403.90
2023-03-07T05:34:10.558Z,409.85
2023-03-07T05:35:05.841Z,418.08
2023-03-07T05:36:01.091Z,428.83
2023-03-07T05:36:56.330Z,434.70
2023-03-07T05:37:51.515Z,437.84
2023-03-07T05:38:47.084Z,442.49
2023-03-07T05:39:42.188Z,438.13
2023-03-07T05:40:37.249Z,426.64
2023-03-07T05:41:32.466Z,418.60
2023-03-07T05:42:27.688Z,413.16
2023-03-07T05:43:23.156Z,404.88
2023-03-07T05:44:18.250Z,394.58
2023-03-07T05:45:13.302Z,372.58
2023-03-07T05:46:08.732Z,363.50
2023-03-07T05:47:03.757Z,331.88
2023-03-07T05:47:59.158Z,268.80
2023-03-07T05:48:54.358Z,214.64
2023-03-07T05:49:49.479Z,234.26
2023-03-07T05:50:44.672Z,251.88
2023-03-07T05:51:39.922Z,266.84
2023-03-07T05:52:35.097Z,286.40
2023-03-07T05:53:30.471Z,300.84
2023-03-07T05:54:25.551Z,313.49
2023-03-07T05:55:20.882Z,314.09
2023-03-07T05:56:16.217Z,318.98
2023-03-07T05:57:11.342Z,327.58
2023-03-07T05:58:06.769Z,330.21
2023-03-07T05:59:02.055Z,338.73
2023-03-07T05:59:57.187Z,339.44
2023-03-07T06:00:52.478Z,345.15
2023-03-07T06:01:47.735Z,349.19
2023-03-07T06:02:43.236Z,352.95
2023-03-07T06:03:38.627Z,361.90
2023-03-07T06:04:33.840Z,367.99
2023-03-07T06:05:29.162Z,366.75
2023-03-07T06:06:24.466Z,346.24
2023-03-07T06:07:19.977Z,351.81
2023-03-07T06:08:15.353Z,342.98
2023-03-07T06:09:11.094Z,331.21
2023-03-07T06:10:06.525Z,342.63
2023-03-07T06:11:01.855Z,350.31
2023-03-07T06:11:57.086Z,365.12
2023-03-07T06:12:52.428Z,374.28
2023-03-07T06:13:47.793Z,379.31
2023-03-07T06:14:43.132Z,383.24
2023-03-07T06:15:38.593Z,383.90
2023-03-07T06:16:33.773Z,394.11
2023-03-07T06:17:29.274Z,398.58
2023-03-07T06:18:24.481Z,401.71
2023-03-07T06:19:19.847Z,404.14
2023-03-07T06:20:15.110Z,401.22
2023-03-07T06:21:10.583Z,401.46
2023-03-07T06:22:05.773Z,395.28
2023-03-07T06:23:01.396Z,396.22
2023-03-07T06:23:56.619Z,330.21
2023-03-07T06:24:51.937Z,301.12
2023-03-07T06:25:47.250Z,323.06
2023-03-07T06:26:42.640Z,323.38
2023-03-07T06:27:38.266Z,332.22
2023-03-07T06:28:33.340Z,342.98
2023-03-07T06:29:28.677Z,362.30
2023-03-07T06:30:24.132Z,363.91
2023-03-07T06:31:19.550Z,352.19
2023-03-07T06:32:14.884Z,351.81
2023-03-07T06:33:10.181Z,364.31
2023-03-07T06:34:05.464Z,376.86
2023-03-07T06:35:00.859Z,387.69
2023-03-07T06:35:56.266Z,398.82
2023-03-07T06:36:51.666Z,394.34
2023-03-07T06:37:47.246Z,394.81
2023-03-07T06:38:42.761Z,364.71
2023-03-07T06:39:37.883Z,365.12
2023-03-07T06:40:32.981Z,358.34
2023-03-07T06:41:28.029Z,358.73
2023-03-07T06:42:23.081Z,371.74
2023-03-07T06:43:18.301Z,386.79
2023-03-07T06:44:13.167Z,398.82
2023-03-07T06:45:08.450Z,396.22
2023-03-07T06:46:03.455Z,403.16
2023-03-07T06:47:02.173Z,411.88
2023-03-07T06:47:57.314Z,395.28
2023-03-07T06:48:52.374Z,357.95
2023-03-07T06:49:47.340Z,358.34
2023-03-07T06:50:42.374Z,367.58
2023-03-07T06:51:38.094Z,384.12
2023-03-07T06:52:32.733Z,397.64
2023-03-07T06:53:27.628Z,408.10
2023-03-07T06:54:22.701Z,412.13
2023-03-07T06:55:17.980Z,415.99
2023-03-07T06:56:14.158Z,426.91
2023-03-07T06:57:09.615Z,385.45
2023-03-07T06:58:05.392Z,387.02
2023-03-07T06:59:00.816Z,398.35
2023-03-07T06:59:56.404Z,407.60
2023-03-07T07:00:52.002Z,417.29
2023-03-07T07:01:47.541Z,425.82
2023-03-07T07:02:43.547Z,429.66
2023-03-07T07:03:38.609Z,426.91
2023-03-07T07:04:34.185Z,419.66
2023-03-07T07:05:30.212Z,418.34
2023-03-07T07:06:25.529Z,445.15
2023-03-07T07:07:21.250Z,455.49
2023-03-07T07:08:17.349Z,467.95
2023-03-07T07:09:13.003Z,467.30
2023-03-07T07:10:08.669Z,442.49
2023-03-07T07:11:04.236Z,433.85
2023-03-07T07:11:59.674Z,445.45
2023-03-07T07:12:55.559Z,471.59
2023-03-07T07:13:50.836Z,489.60
2023-03-07T07:14:46.769Z,492.49
2023-03-07T07:15:42.069Z,480.43
2023-03-07T07:16:37.417Z,493.95
2023-03-07T07:17:33.322Z,512.95
2023-03-07T07:18:28.570Z,519.74
2023-03-07T07:19:23.984Z,526.72
2023-03-07T07:20:20.389Z,530.50
2023-03-07T07:21:15.778Z,522.60
2023-03-07T07:22:11.664Z,525.48
2023-03-07T07:23:06.959Z,532.61
2023-03-07T07:24:02.411Z,552.01
2023-03-07T07:24:58.185Z,550.65
2023-03-07T07:25:53.646Z,538.64
2023-03-07T07:26:49.620Z,530.50
2023-03-07T07:27:44.913Z,536.04
2023-03-07T07:28:40.186Z,514.93
2023-03-07T07:29:36.188Z,514.14
2023-03-07T07:30:31.435Z,524.24
2023-03-07T07:31:26.935Z,480.43
2023-03-07T07:32:23.369Z,496.16
2023-03-07T07:33:18.722Z,519.74
2023-03-07T07:34:14.633Z,544.80
2023-03-07T07:35:10.035Z,572.88
2023-03-07T07:36:05.626Z,599.67
2023-03-07T07:37:01.401Z,623.79
2023-03-07T07:37:56.645Z,641.19
2023-03-07T07:38:52.641Z,652.48
2023-03-07T07:39:47.906Z,653.76
2023-03-07T07:40:43.473Z,658.28
2023-03-07T07:41:39.046Z,662.20
2023-03-07T07:42:34.488Z,683.23
2023-03-07T07:43:29.900Z,698.99
2023-03-07T07:44:25.390Z,611.77
2023-03-07T07:45:21.112Z,633.87
2023-03-07T07:46:16.631Z,604.02
2023-03-07T07:47:12.118Z,618.01
2023-03-07T07:48:07.882Z,533.47
2023-03-07T07:49:03.275Z,406.11
2023-03-07T07:49:59.331Z,421.78
2023-03-07T07:50:54.733Z,441.90
2023-03-07T07:51:50.252Z,471.93
2023-03-07T07:52:45.848Z,484.27
2023-03-07T07:53:41.329Z,520.56
2023-03-07T07:54:36.957Z,536.04
2023-03-07T07:55:33.116Z,560.36
2023-03-07T07:56:28.517Z,577.84
2023-03-07T07:57:24.440Z,594.86
2023-03-07T07:58:19.848Z,608.98
2023-03-07T07:59:15.438Z,572.88
2023-03-07T08:00:10.768Z,632.67
2023-03-07T08:01:06.305Z,669.51
2023-03-07T08:02:03.046Z,668.84
2023-03-07T08:02:58.367Z,661.54
2023-03-07T08:03:53.957Z,656.98
2023-03-07T08:04:49.699Z,689.59
2023-03-07T08:05:45.173Z,736.83
2023-03-07T08:06:40.784Z,756.37
2023-03-07T08:07:36.383Z,775.71
2023-03-07T08:08:32.020Z,765.04
2023-03-07T08:09:27.308Z,753.39
2023-03-07T08:10:22.773Z,722.46
2023-03-07T08:11:17.942Z,739.28
2023-03-07T08:12:13.489Z,715.49
2023-03-07T08:13:08.380Z,748.74
2023-03-07T08:14:07.590Z,776.61
2023-03-07T08:15:02.956Z,798.45
2023-03-07T08:15:58.467Z,793.70
2023-03-07T08:16:54.522Z,755.09
2023-03-07T08:17:49.696Z,718.57
2023-03-07T08:18:45.061Z,731.18
2023-03-07T08:19:41.693Z,769.45
2023-03-07T08:20:37.272Z,786.22
2023-03-07T08:21:33.208Z,782.53
2023-03-07T08:22:28.453Z,707.89
2023-03-07T08:23:23.898Z,632.67
2023-03-07T08:24:24.937Z,655.04
2023-03-07T08:25:16.435Z,693.17
2023-03-07T08:26:11.180Z,718.57
2023-03-07T08:27:06.763Z,727.98
2023-03-07T08:28:02.110Z,765.04
2023-03-07T08:28:58.068Z,727.98
2023-03-07T08:29:53.535Z,762.42
2023-03-07T08:30:49.110Z,779.79
2023-03-07T08:31:45.469Z,796.54
2023-03-07T08:32:40.877Z,838.57
2023-03-07T08:33:36.878Z,852.49
2023-03-07T08:34:32.275Z,785.76
2023-03-07T08:35:27.688Z,779.33
2023-03-07T08:36:23.661Z,686.04
2023-03-07T08:37:18.982Z,638.73
2023-03-07T08:38:14.856Z,686.04
2023-03-07T08:39:10.164Z,761.99
2023-03-07T08:40:05.571Z,832.29
2023-03-07T08:41:01.525Z,885.28
2023-03-07T08:41:56.860Z,908.78
2023-03-07T08:42:52.308Z,921.96
2023-03-07T08:43:48.592Z,975.16
2023-03-07T08:44:44.029Z,998.50
2023-03-07T08:45:40.071Z,1031.69
2023-03-07T08:46:35.575Z,1051.18
2023-03-07T08:47:30.814Z,1005.27
2023-03-07T08:48:26.459Z,924.52
2023-03-07T08:49:21.928Z,952.21
2023-03-07T08:50:17.791Z,991.83
2023-03-07T08:51:13.493Z,1022.99
2023-03-07T08:52:08.604Z,1038.10
2023-03-07T08:53:04.405Z,1073.15
2023-03-07T08:53:59.796Z,1062.90
2023-03-07T08:54:55.249Z,1063.74
2023-03-07T08:55:51.393Z,1115.29
2023-03-07T08:56:47.128Z,1180.37
2023-03-07T08:57:42.819Z,1200.54
2023-03-07T08:58:38.387Z,1219.18
2023-03-07T08:59:33.945Z,1247.66
2023-03-07T09:00:29.686Z,1297.38
2023-03-07T09:01:25.064Z,1310.11
2023-03-07T09:02:20.840Z,1266.60
2023-03-07T09:03:16.335Z,1200.54
2023-03-07T09:04:11.612Z,1038.91
2023-03-07T09:05:07.492Z,1079.22
2023-03-07T09:06:02.940Z,1101.48
2023-03-07T09:07:00.054Z,1077.48
2023-03-07T09:07:54.675Z,1040.53
2023-03-07T09:08:50.111Z,972.32
2023-03-07T09:09:46.020Z,1032.48
2023-03-07T09:10:41.429Z,1129.44
2023-03-07T09:11:37.168Z,1202.70
2023-03-07T09:12:32.610Z,1251.17
2023-03-07T09:13:28.150Z,1292.35
2023-03-07T09:14:23.784Z,1337.68
2023-03-07T09:15:18.857Z,1386.29
2023-03-07T09:16:14.173Z,1377.71
2023-03-07T09:17:09.061Z,1317.87
2023-03-07T09:18:04.178Z,1308.82
2023-03-07T09:18:59.414Z,1313.98
2023-03-07T09:19:54.366Z,1327.04
2023-03-07T09:20:49.581Z,1362.24
2023-03-07T09:21:44.650Z,1325.72
2023-03-07T09:22:39.688Z,1353.95
2023-03-07T09:23:36.675Z,1393.53
2023-03-07T09:24:31.748Z,1399.37
2023-03-07T09:25:26.849Z,1341.71
2023-03-07T09:26:21.971Z,1366.43
2023-03-07T09:27:16.964Z,1362.24
2023-03-07T09:28:11.996Z,1292.35
2023-03-07T09:29:07.020Z,1296.12
2023-03-07T09:30:02.015Z,1328.36
2023-03-07T09:30:57.209Z,1331.01
2023-03-07T09:31:52.521Z,1363.64
2023-03-07T09:32:47.818Z,1360.86
2023-03-07T09:33:45.680Z,1332.33
2023-03-07T09:34:39.435Z,1336.34
2023-03-07T09:35:34.689Z,1343.06
2023-03-07T09:36:30.272Z,1460.61
2023-03-07T09:37:26.231Z,1429.34
2023-03-07T09:38:21.608Z,1356.71
2023-03-07T09:39:16.979Z,1394.98
2023-03-07T09:40:12.478Z,1353.95
2023-03-07T09:41:07.651Z,1411.20
2023-03-07T09:42:02.506Z,1462.21
2023-03-07T09:42:57.485Z,1471.89
2023-03-07T09:43:52.757Z,1366.43
2023-03-07T09:44:47.647Z,1331.01
2023-03-07T09:45:42.971Z,1333.67
2023-03-07T09:46:37.747Z,1349.85
2023-03-07T09:47:32.818Z,1355.33
2023-03-07T09:48:27.844Z,1252.34
2023-03-07T09:49:22.862Z,1266.60
2023-03-07T09:50:18.019Z,1231.55
2023-03-07T09:51:13.728Z,1199.46
2023-03-07T09:52:10.345Z,1203.79
2023-03-07T09:53:04.903Z,1092.47
2023-03-07T09:54:00.468Z,1167.98
2023-03-07T09:54:56.192Z,1221.41
2023-03-07T09:55:51.762Z,1266.60
2023-03-07T09:56:47.324Z,1254.70
2023-03-07T09:57:42.908Z,1264.20
2023-03-07T09:58:38.440Z,1340.36
2023-03-07T09:59:34.344Z,1386.29
2023-03-07T10:00:29.838Z,1356.71
2023-03-07T10:01:25.520Z,1293.60
2023-03-07T10:02:21.523Z,1212.53
2023-03-07T10:03:17.064Z,1193.03
2023-03-07T10:04:13.155Z,1111.57
2023-03-07T10:05:08.477Z,1106.96
2023-03-07T10:06:04.059Z,1205.96
2023-03-07T10:06:59.799Z,1286.13
2023-03-07T10:07:55.339Z,1365.03
2023-03-07T10:08:51.357Z,1351.21
2023-03-07T10:09:46.531Z,1288.61
2023-03-07T10:10:42.102Z,1359.47
2023-03-07T10:11:37.966Z,1463.82
2023-03-07T10:12:33.305Z,1506.77
2023-03-07T10:13:28.778Z,1605.53
2023-03-07T10:14:25.203Z,1593.08
2023-03-07T10:15:20.588Z,1617.20
2023-03-07T10:16:16.714Z,1651.21
2023-03-07T10:17:12.108Z,1668.75
2023-03-07T10:18:07.520Z,1721.47
2023-03-07T10:19:03.458Z,1760.05
2023-03-07T10:19:58.797Z,1790.74
2023-03-07T10:20:54.871Z,1849.03
2023-03-07T10:21:50.253Z,1831.28
2023-03-07T10:22:45.629Z,1830.02
2023-03-07T10:23:41.523Z,1756.58
2023-03-07T10:24:37.202Z,1727.04
2023-03-07T10:25:32.684Z,1768.21
2023-03-07T10:26:29.380Z,1885.59
2023-03-07T10:27:24.583Z,1946.06
2023-03-07T10:28:20.516Z,1907.14
2023-03-07T10:29:15.866Z,1854.17
2023-03-07T10:30:11.360Z,1818.80
2023-03-07T10:31:07.348Z,1463.82
2023-03-07T10:32:02.929Z,1441.69
2023-03-07T10:32:58.757Z,1446.37
2023-03-07T10:33:54.098Z,1397.91
2023-03-07T10:34:49.434Z,1352.58
2023-03-07T10:35:45.486Z,1390.62
2023-03-07T10:36:40.950Z,1363.64
2023-03-07T10:37:36.303Z,1405.26
2023-03-07T10:38:32.974Z,1383.42
2023-03-07T10:39:28.342Z,1353.95
2023-03-07T10:40:24.366Z,1386.29
2023-03-07T10:41:19.982Z,1427.81
2023-03-07T10:42:15.588Z,1511.89
2023-03-07T10:43:11.158Z,1484.98
2023-03-07T10:44:06.802Z,1473.51
2023-03-07T10:45:02.780Z,1402.31
2023-03-07T10:45:58.070Z,1417.20
2023-03-07T10:46:56.492Z,1528.33
2023-03-07T10:47:49.169Z,1713.74
2023-03-07T10:48:44.281Z,1737.15
2023-03-07T10:49:39.332Z,1612.32
2023-03-07T10:50:39.255Z,1655.30
2023-03-07T10:51:34.614Z,1718.15
2023-03-07T10:52:30.095Z,1733.77
2023-03-07T10:53:25.868Z,1767.04
2023-03-07T10:54:21.261Z,1718.15
2023-03-07T10:55:16.692Z,1617.20
2023-03-07T10:56:13.071Z,1489.95
2023-03-07T10:57:08.838Z,1380.56
2023-03-07T10:58:04.580Z,1406.74
2023-03-07T10:58:59.863Z,1494.96
2023-03-07T10:59:55.492Z,1591.18
2023-03-07T11:00:51.566Z,1600.72
2023-03-07T11:01:46.953Z,1600.72
2023-03-07T11:02:42.719Z,1639.04
2023-03-07T11:03:52.181Z,1515.32
2023-03-07T11:04:34.793Z,1387.73
2023-03-07T11:05:29.086Z,1319.17
2023-03-07T11:06:24.515Z,1209.24
2023-03-07T11:07:20.471Z,1173.11
2023-03-07T11:08:15.862Z,1082.72
2023-03-07T11:09:11.422Z,1071.43
2023-03-07T11:10:06.979Z,1108.80
2023-03-07T11:11:02.483Z,1166.96
2023-03-07T11:11:58.087Z,950.18
2023-03-07T11:12:53.757Z,980.18
2023-03-07T11:13:48.819Z,1050.35
2023-03-07T11:14:43.952Z,1119.97
2023-03-07T11:15:39.023Z,1161.88
2023-03-07T11:16:34.384Z,1275.07
2023-03-07T11:17:29.035Z,1386.29
2023-03-07T11:18:24.115Z,1446.37
2023-03-07T11:19:19.172Z,1536.25
2023-03-07T11:20:14.246Z,1637.03
2023-03-07T11:21:09.343Z,1634.03
2023-03-07T11:22:04.480Z,1697.39
2023-03-07T11:22:59.511Z,1818.80
2023-03-07T11:23:54.654Z,1774.09
2023-03-07T11:24:50.002Z,1784.76
2023-03-07T11:25:46.309Z,1799.19
2023-03-07T11:26:41.781Z,1822.53
2023-03-07T11:27:37.550Z,1886.93